createdAt,value
2023-04-05T00:01:19.646Z,61.21
2023-04-05T00:03:50.622Z,61.03
2023-04-05T00:06:22.233Z,61.12
2023-04-05T00:08:55.814Z,61.30
2023-04-05T00:11:26.614Z,61.44
2023-04-05T00:14:00.321Z,61.26
2023-04-05T00:16:32.146Z,61.75
2023-04-05T00:19:02.966Z,61.68
2023-04-05T00:21:33.544Z,61.71
2023-04-05T00:24:04.057Z,61.48
2023-04-05T00:26:34.665Z,61.63
2023-04-05T00:29:08.015Z,61.55
2023-04-05T00:31:38.516Z,61.55
2023-04-05T00:34:10.552Z,61.75
2023-04-05T00:36:41.376Z,62.00
2023-04-05T00:39:11.924Z,62.14
2023-04-05T00:41:45.724Z,62.43
2023-04-05T00:44:20.114Z,62.49
2023-04-05T00:46:51.457Z,62.63
2023-04-05T00:49:22.342Z,62.59
2023-04-05T00:51:52.997Z,62.92
2023-04-05T00:54:23.701Z,63.18
2023-04-05T00:56:55.117Z,63.25
2023-04-05T00:59:29.247Z,63.50
2023-04-05T01:02:09.122Z,63.55
2023-04-05T01:04:41.740Z,63.42
2023-04-05T01:07:20.399Z,63.63
2023-04-05T01:09:58.881Z,63.74
2023-04-05T01:12:33.714Z,63.41
2023-04-05T01:15:07.777Z,63.32
2023-04-05T01:17:39.611Z,63.02
2023-04-05T01:20:13.418Z,63.01
2023-04-05T01:23:14.960Z,62.94
2023-04-05T01:26:17.020Z,63.08
2023-04-05T01:29:17.948Z,63.01
2023-04-05T01:31:59.849Z,62.80
2023-04-05T01:34:43.206Z,62.88
2023-04-05T01:37:18.684Z,62.70
2023-04-05T01:39:51.111Z,62.78
2023-04-05T01:42:27.431Z,62.90
2023-04-05T01:45:00.155Z,63.05
2023-04-05T01:47:33.404Z,62.80
2023-04-05T01:50:04.570Z,62.70
2023-04-05T01:52:35.187Z,62.67
2023-04-05T01:55:06.311Z,62.62
2023-04-05T01:57:37.161Z,62.97
2023-04-05T02:00:09.168Z,62.92
2023-04-05T02:02:46.276Z,62.73
2023-04-05T02:05:17.239Z,62.92
2023-04-05T02:07:48.055Z,62.82
2023-04-05T02:10:18.858Z,62.79
2023-04-05T02:12:49.502Z,62.58
2023-04-05T02:15:20.252Z,62.50
2023-04-05T02:17:54.380Z,62.46
2023-04-05T02:20:26.061Z,62.84
2023-04-05T02:22:56.739Z,62.69
2023-04-05T02:25:27.457Z,62.54
2023-04-05T02:27:58.068Z,62.35
2023-04-05T02:30:29.422Z,62.23
2023-04-05T02:33:03.582Z,62.39
2023-04-05T02:35:34.086Z,62.65
2023-04-05T02:38:04.903Z,62.41
2023-04-05T02:40:42.299Z,62.50
2023-04-05T02:43:13.256Z,62.31
2023-04-05T02:45:46.263Z,62.27
2023-04-05T02:48:20.912Z,62.24
2023-04-05T02:50:52.474Z,62.37
2023-04-05T02:53:23.875Z,62.46
2023-04-05T02:56:01.215Z,62.45
2023-04-05T02:58:33.052Z,62.43
2023-04-05T03:01:07.552Z,62.54
2023-04-05T03:03:42.420Z,62.60
2023-04-05T03:06:13.674Z,62.58
2023-04-05T03:08:51.143Z,62.40
2023-04-05T03:11:26.189Z,62.45
2023-04-05T03:14:00.878Z,62.50
2023-04-05T03:16:40.479Z,62.52
2023-04-05T03:19:29.700Z,62.45
2023-04-05T03:22:11.269Z,62.66
2023-04-05T03:24:42.826Z,62.41
2023-04-05T03:27:15.779Z,62.49
2023-04-05T03:30:02.570Z,62.36
2023-04-05T03:32:36.454Z,62.46
2023-04-05T03:35:25.940Z,62.33
2023-04-05T03:37:56.782Z,62.47
2023-04-05T03:40:27.532Z,62.49
2023-04-05T03:42:58.162Z,62.38
2023-04-05T03:45:29.785Z,62.36
2023-04-05T03:48:01.348Z,62.67
2023-04-05T03:50:35.012Z,62.35
2023-04-05T03:53:06.086Z,62.59
2023-04-05T03:55:36.737Z,62.79
2023-04-05T03:58:09.951Z,62.61
2023-04-05T04:00:40.586Z,62.73
2023-04-05T04:03:26.226Z,62.72
2023-04-05T04:05:59.792Z,62.78
2023-04-05T04:08:31.763Z,62.63
2023-04-05T04:11:03.587Z,62.79
2023-04-05T04:13:37.968Z,62.89
2023-04-05T04:16:37.502Z,62.77
2023-04-05T04:19:27.390Z,62.94
2023-04-05T04:22:13.403Z,62.88
2023-04-05T04:24:46.575Z,63.05
2023-04-05T04:27:54.967Z,63.11
2023-04-05T04:30:43.624Z,63.13
2023-04-05T04:33:46.864Z,63.13
2023-04-05T04:36:19.013Z,63.05
2023-04-05T04:39:05.787Z,63.16
2023-04-05T04:41:56.170Z,63.34
2023-04-05T04:44:42.838Z,63.29
2023-04-05T04:47:27.848Z,63.36
2023-04-05T04:50:11.829Z,63.14
2023-04-05T04:52:42.725Z,63.02
2023-04-05T04:55:16.482Z,63.02
2023-04-05T04:57:50.531Z,63.04
2023-04-05T05:00:21.902Z,63.07
2023-04-05T05:02:53.665Z,62.96
2023-04-05T05:05:26.783Z,62.97
2023-04-05T05:07:57.397Z,62.91
2023-04-05T05:10:30.610Z,62.88
2023-04-05T05:13:05.756Z,62.88
2023-04-05T05:15:36.641Z,62.98
2023-04-05T05:18:07.406Z,62.71
2023-04-05T05:20:38.169Z,62.64
2023-04-05T05:23:08.782Z,62.94
2023-04-05T05:25:42.771Z,62.64
2023-04-05T05:28:13.383Z,62.83
2023-04-05T05:30:44.201Z,63.11
2023-04-05T05:33:15.009Z,63.03
2023-04-05T05:35:46.653Z,62.92
2023-04-05T05:38:17.574Z,62.45
2023-04-05T05:40:50.866Z,61.90
2023-04-05T05:43:21.294Z,61.78
2023-04-05T05:45:51.946Z,61.69
2023-04-05T05:48:22.626Z,61.76
2023-04-05T05:50:54.683Z,61.50
2023-04-05T05:53:25.175Z,61.71
2023-04-05T05:55:58.368Z,61.89
2023-04-05T05:58:28.888Z,61.88
2023-04-05T06:01:00.125Z,62.01
2023-04-05T06:03:30.780Z,61.94
2023-04-05T06:06:03.424Z,62.02
2023-04-05T06:08:34.024Z,61.82
2023-04-05T06:11:07.522Z,61.96
2023-04-05T06:13:38.149Z,62.25
2023-04-05T06:16:09.164Z,62.38
2023-04-05T06:18:40.344Z,62.74
2023-04-05T06:21:11.000Z,62.83
2023-04-05T06:23:42.108Z,62.75
2023-04-05T06:26:20.687Z,62.33
2023-04-05T06:28:51.399Z,62.09
2023-04-05T06:31:23.865Z,62.03
2023-04-05T06:33:54.737Z,61.98
2023-04-05T06:36:27.402Z,61.67
2023-04-05T06:38:59.567Z,61.79
2023-04-05T06:41:32.852Z,61.56
2023-04-05T06:44:04.329Z,61.70
2023-04-05T06:46:35.204Z,61.85
2023-04-05T06:49:06.156Z,61.59
2023-04-05T06:51:36.796Z,61.17
2023-04-05T06:54:07.635Z,60.80
2023-04-05T06:56:40.882Z,60.45
2023-04-05T06:59:11.480Z,60.45
2023-04-05T07:01:42.596Z,60.33
2023-04-05T07:04:13.271Z,60.42
2023-04-05T07:06:43.892Z,60.37
2023-04-05T07:09:14.527Z,60.38
2023-04-05T07:11:47.858Z,60.44
2023-04-05T07:14:18.476Z,60.55
2023-04-05T07:16:49.827Z,60.75
2023-04-05T07:19:20.718Z,61.15
2023-04-05T07:21:51.541Z,61.13
2023-04-05T07:24:22.716Z,61.45
2023-04-05T07:26:57.093Z,61.53
2023-04-05T07:29:27.914Z,61.57
2023-04-05T07:31:58.971Z,61.08
2023-04-05T07:34:29.517Z,61.00
2023-04-05T07:37:00.826Z,61.01
2023-04-05T07:39:31.464Z,60.89
2023-04-05T07:42:04.689Z,60.83
2023-04-05T07:44:35.300Z,60.63
2023-04-05T07:47:06.227Z,60.62
2023-04-05T07:49:38.087Z,60.38
2023-04-05T07:52:09.102Z,59.97
2023-04-05T07:54:43.459Z,59.83
2023-04-05T07:57:19.069Z,59.03
2023-04-05T07:59:51.142Z,59.57
2023-04-05T08:02:21.913Z,59.22
2023-04-05T08:04:52.498Z,59.14
2023-04-05T08:07:23.160Z,58.81
2023-04-05T08:09:53.874Z,58.22
2023-04-05T08:12:27.200Z,58.11
2023-04-05T08:14:58.000Z,58.25
2023-04-05T08:17:29.323Z,58.07
2023-04-05T08:20:00.127Z,57.82
2023-04-05T08:22:31.980Z,57.85
2023-04-05T08:25:02.878Z,58.12
2023-04-05T08:27:36.319Z,57.58
2023-04-05T08:30:09.047Z,57.21
2023-04-05T08:32:39.866Z,57.52
2023-04-05T08:35:11.313Z,57.47
2023-04-05T08:37:41.857Z,57.56
2023-04-05T08:40:14.645Z,57.52
2023-04-05T08:42:55.173Z,57.37
2023-04-05T08:45:27.334Z,57.38
2023-04-05T08:47:58.078Z,57.43
2023-04-05T08:50:28.825Z,57.15
2023-04-05T08:52:59.484Z,57.16
2023-04-05T08:55:30.014Z,56.64
2023-04-05T08:58:05.473Z,56.26
2023-04-05T09:00:36.418Z,55.73
2023-04-05T09:03:07.939Z,55.65
2023-04-05T09:05:40.922Z,55.45
2023-04-05T09:08:12.343Z,54.76
2023-04-05T09:10:43.446Z,54.52
2023-04-05T09:13:16.652Z,53.98
2023-04-05T09:15:48.286Z,53.48
2023-04-05T09:18:26.300Z,53.92
2023-04-05T09:21:06.697Z,53.34
2023-04-05T09:23:37.932Z,53.05
2023-04-05T09:26:21.992Z,53.26
2023-04-05T09:28:58.059Z,53.84
2023-04-05T09:31:39.450Z,53.11
2023-04-05T09:34:13.137Z,53.47
2023-04-05T09:36:47.123Z,54.41
2023-04-05T09:39:21.851Z,53.83
2023-04-05T09:42:12.110Z,53.96
2023-04-05T09:45:01.665Z,54.51
2023-04-05T09:47:35.678Z,54.83
2023-04-05T09:50:23.355Z,55.01
2023-04-05T09:53:08.649Z,55.31
2023-04-05T09:55:41.254Z,54.68
2023-04-05T09:58:15.559Z,54.90
2023-04-05T10:01:09.844Z,53.78
2023-04-05T10:03:50.209Z,54.87
2023-04-05T10:06:21.811Z,55.01
2023-04-05T10:08:54.514Z,55.00
2023-04-05T10:11:27.636Z,54.80
2023-04-05T10:13:58.625Z,54.28
2023-04-05T10:16:35.701Z,54.29
2023-04-05T10:19:10.328Z,53.95
2023-04-05T10:21:46.709Z,54.42
2023-04-05T10:24:25.659Z,54.17
2023-04-05T10:27:06.496Z,53.79
2023-04-05T10:29:53.596Z,53.02
2023-04-05T10:32:38.890Z,50.87
2023-04-05T10:35:13.265Z,53.38
2023-04-05T10:37:57.007Z,54.49
2023-04-05T10:40:34.998Z,55.39
2023-04-05T10:43:07.358Z,54.90
2023-04-05T10:45:41.964Z,54.79
2023-04-05T10:48:21.969Z,54.44
2023-04-05T10:50:53.302Z,53.94
2023-04-05T10:53:25.150Z,54.66
2023-04-05T10:55:58.562Z,54.55
2023-04-05T10:58:30.268Z,53.79
2023-04-05T11:01:02.489Z,53.96
2023-04-05T11:03:55.209Z,53.71
2023-04-05T11:06:27.836Z,54.85
2023-04-05T11:09:00.641Z,54.16
2023-04-05T11:11:41.926Z,53.22
2023-04-05T11:14:25.528Z,52.58
2023-04-05T11:17:00.015Z,52.53
2023-04-05T11:19:57.020Z,53.21
2023-04-05T11:22:30.684Z,52.26
2023-04-05T11:25:03.352Z,52.22
2023-04-05T11:27:37.519Z,52.32
2023-04-05T11:30:09.801Z,52.83
2023-04-05T11:32:45.069Z,52.57
2023-04-05T11:35:23.555Z,51.85
2023-04-05T11:37:59.019Z,52.59
2023-04-05T11:40:34.480Z,53.61
2023-04-05T11:43:07.731Z,53.46
2023-04-05T11:45:41.033Z,53.51
2023-04-05T11:48:14.442Z,53.62
2023-04-05T11:50:50.318Z,54.04
2023-04-05T11:53:21.638Z,54.26
2023-04-05T11:55:55.591Z,54.37
2023-04-05T11:58:28.684Z,53.91
2023-04-05T12:01:01.978Z,53.68
2023-04-05T12:03:33.409Z,53.77
2023-04-05T12:06:08.577Z,53.29
2023-04-05T12:08:50.088Z,53.83
2023-04-05T12:11:27.851Z,53.46
2023-04-05T12:13:59.847Z,53.77
2023-04-05T12:16:31.217Z,54.08
2023-04-05T12:19:03.621Z,54.04
2023-04-05T12:21:37.372Z,53.60
2023-04-05T12:24:09.143Z,53.93
2023-04-05T12:26:40.495Z,53.43
2023-04-05T12:29:11.299Z,53.75
2023-04-05T12:31:42.939Z,53.22
2023-04-05T12:34:14.858Z,53.54
2023-04-05T12:36:49.612Z,53.21
2023-04-05T12:39:20.572Z,52.48
2023-04-05T12:42:00.312Z,52.36
2023-04-05T12:44:32.699Z,52.06
2023-04-05T12:47:09.734Z,51.85
2023-04-05T12:49:41.145Z,51.27
2023-04-05T12:52:22.798Z,51.76
2023-04-05T12:54:57.779Z,52.58
2023-04-05T12:57:34.149Z,52.13
2023-04-05T13:00:05.487Z,52.13
2023-04-05T13:02:36.147Z,52.35
2023-04-05T13:05:07.233Z,52.78
2023-04-05T13:07:40.477Z,52.28
2023-04-05T13:10:13.122Z,53.55
2023-04-05T13:12:43.710Z,53.33
2023-04-05T13:15:14.544Z,52.90
2023-04-05T13:17:46.141Z,53.09
2023-04-05T13:20:16.799Z,53.12
2023-04-05T13:22:50.714Z,53.42
2023-04-05T13:25:21.397Z,52.63
2023-04-05T13:27:52.260Z,53.66
2023-04-05T13:30:23.287Z,53.61
2023-04-05T13:32:53.998Z,52.88
2023-04-05T13:35:24.793Z,53.32
2023-04-05T13:37:58.204Z,53.01
2023-04-05T13:40:28.850Z,53.37
2023-04-05T13:42:59.600Z,53.29
2023-04-05T13:45:31.643Z,53.23
2023-04-05T13:48:03.718Z,52.98
2023-04-05T13:50:34.438Z,52.67
2023-04-05T13:53:07.689Z,52.24
2023-04-05T13:55:38.343Z,52.14
2023-04-05T13:58:09.244Z,52.03
2023-04-05T14:00:41.816Z,52.28
2023-04-05T14:03:12.790Z,52.12
2023-04-05T14:05:43.510Z,51.68
2023-04-05T14:08:16.786Z,52.15
2023-04-05T14:10:47.514Z,51.86
2023-04-05T14:13:18.636Z,51.92
2023-04-05T14:15:49.751Z,51.74
2023-04-05T14:18:20.598Z,51.66
2023-04-05T14:20:51.573Z,52.03
2023-04-05T14:23:27.196Z,51.92
2023-04-05T14:25:58.102Z,51.80
2023-04-05T14:28:28.804Z,51.85
2023-04-05T14:30:59.967Z,51.96
2023-04-05T14:33:30.878Z,51.58
2023-04-05T14:36:01.793Z,52.05
2023-04-05T14:38:35.289Z,51.32
2023-04-05T14:41:06.344Z,51.21
2023-04-05T14:43:37.315Z,51.26
2023-04-05T14:46:08.644Z,51.61
2023-04-05T14:48:39.649Z,51.91
2023-04-05T14:51:10.615Z,52.77
2023-04-05T14:53:44.257Z,52.64
2023-04-05T14:56:15.007Z,52.49
2023-04-05T14:58:45.854Z,52.45
2023-04-05T15:01:16.730Z,52.89
2023-04-05T15:03:48.545Z,52.56
2023-04-05T15:06:20.079Z,52.35
2023-04-05T15:08:59.504Z,52.69
2023-04-05T15:11:34.289Z,52.79
2023-04-05T15:14:04.913Z,47.98
2023-04-05T15:16:35.673Z,52.89
2023-04-05T15:19:06.718Z,52.84
2023-04-05T15:21:39.224Z,52.68
2023-04-05T15:24:13.724Z,52.92
2023-04-05T15:26:44.436Z,52.78
2023-04-05T15:29:15.184Z,53.10
2023-04-05T15:31:46.476Z,52.79
2023-04-05T15:34:17.290Z,53.47
2023-04-05T15:36:48.175Z,53.41
2023-04-05T15:39:21.848Z,53.36
2023-04-05T15:41:53.038Z,52.89
2023-04-05T15:44:23.843Z,52.86
2023-04-05T15:46:54.734Z,52.84
2023-04-05T15:49:25.798Z,52.94
2023-04-05T15:51:56.707Z,53.06
2023-04-05T15:54:30.343Z,53.06
2023-04-05T15:57:02.176Z,52.99
2023-04-05T15:59:33.609Z,52.37
2023-04-05T16:02:05.347Z,52.48
2023-04-05T16:04:36.261Z,52.50
2023-04-05T16:07:07.899Z,52.90
2023-04-05T16:09:41.392Z,53.40
2023-04-05T16:12:12.247Z,52.90
2023-04-05T16:14:43.142Z,53.01
2023-04-05T16:17:14.050Z,52.85
2023-04-05T16:19:44.947Z,53.22
2023-04-05T16:22:16.117Z,53.11
2023-04-05T16:24:49.561Z,53.37
2023-04-05T16:27:20.444Z,53.52
2023-04-05T16:29:51.423Z,53.78
2023-04-05T16:32:22.755Z,53.51
2023-04-05T16:34:53.928Z,53.82
2023-04-05T16:37:24.814Z,53.62
2023-04-05T16:39:58.237Z,53.62
2023-04-05T16:42:29.085Z,53.62
2023-04-05T16:45:01.915Z,53.88
2023-04-05T16:47:32.779Z,53.66
2023-04-05T16:50:03.657Z,53.43
2023-04-05T16:52:34.636Z,53.09
2023-04-05T16:55:08.678Z,53.34
2023-04-05T16:57:39.755Z,53.46
2023-04-05T17:00:12.082Z,53.00
2023-04-05T17:02:43.005Z,52.95
2023-04-05T17:05:14.321Z,53.50
2023-04-05T17:07:45.464Z,53.43
2023-04-05T17:10:19.132Z,53.04
2023-04-05T17:12:50.167Z,53.06
2023-04-05T17:15:21.394Z,53.46
2023-04-05T17:17:52.973Z,53.37
2023-04-05T17:20:23.983Z,53.80
2023-04-05T17:22:58.412Z,53.65
2023-04-05T17:25:31.924Z,53.67
2023-04-05T17:28:03.335Z,53.56
2023-04-05T17:30:34.963Z,53.65
2023-04-05T17:33:05.937Z,53.89
2023-04-05T17:35:36.884Z,53.70
2023-04-05T17:38:07.786Z,53.58
2023-04-05T17:40:41.089Z,53.21
2023-04-05T17:43:12.907Z,53.20
2023-04-05T17:45:43.873Z,53.34
2023-04-05T17:48:14.873Z,53.23
2023-04-05T17:50:45.718Z,53.35
2023-04-05T17:53:17.431Z,53.56
2023-04-05T17:55:50.873Z,53.82
2023-04-05T17:58:21.923Z,53.62
2023-04-05T18:00:53.460Z,53.74
2023-04-05T18:03:24.454Z,53.52
2023-04-05T18:05:55.490Z,53.65
2023-04-05T18:08:29.175Z,53.85
2023-04-05T18:11:03.454Z,53.78
2023-04-05T18:13:34.244Z,53.67
2023-04-05T18:16:05.050Z,53.82
2023-04-05T18:18:36.105Z,53.72
2023-04-05T18:21:07.666Z,54.13
2023-04-05T18:23:38.408Z,53.85
2023-04-05T18:26:13.943Z,54.09
2023-04-05T18:28:44.777Z,54.05
2023-04-05T18:31:16.097Z,54.08
2023-04-05T18:33:46.957Z,53.97
2023-04-05T18:36:17.812Z,53.74
2023-04-05T18:38:48.947Z,53.99
2023-04-05T18:41:22.458Z,53.87
2023-04-05T18:43:56.559Z,53.92
2023-04-05T18:46:27.588Z,54.06
2023-04-05T18:48:58.654Z,54.30
2023-04-05T18:51:30.059Z,54.22
2023-04-05T18:54:01.220Z,54.00
2023-04-05T18:56:34.752Z,54.81
2023-04-05T18:59:06.140Z,55.07
2023-04-05T19:01:37.334Z,55.02
2023-04-05T19:04:08.594Z,54.69
2023-04-05T19:06:39.834Z,54.58
2023-04-05T19:09:11.982Z,54.43
2023-04-05T19:11:45.625Z,54.50
2023-04-05T19:14:16.592Z,54.48
2023-04-05T19:16:47.474Z,54.50
2023-04-05T19:19:19.276Z,54.44
2023-04-05T19:21:50.124Z,54.27
2023-04-05T19:24:22.174Z,54.20
2023-04-05T19:26:57.132Z,54.21
2023-04-05T19:29:28.050Z,54.47
2023-04-05T19:31:58.990Z,54.59
2023-04-05T19:34:29.878Z,54.43
2023-04-05T19:37:02.314Z,54.75
2023-04-05T19:39:33.600Z,54.70
2023-04-05T19:42:08.272Z,54.72
2023-04-05T19:44:47.861Z,54.60
2023-04-05T19:47:22.929Z,54.60
2023-04-05T19:49:56.669Z,54.74
2023-04-05T19:52:39.569Z,55.07
2023-04-05T19:55:30.997Z,54.46
2023-04-05T19:58:06.648Z,54.75
2023-04-05T20:00:41.496Z,54.73
2023-04-05T20:03:32.392Z,54.79
2023-04-05T20:06:11.372Z,55.11
2023-04-05T20:08:44.159Z,55.18
2023-04-05T20:11:16.600Z,55.16
2023-04-05T20:13:52.204Z,55.23
2023-04-05T20:16:28.780Z,55.00
2023-04-05T20:19:01.702Z,55.05
2023-04-05T20:21:32.900Z,54.98
2023-04-05T20:24:04.903Z,55.17
2023-04-05T20:26:36.465Z,54.95
2023-04-05T20:29:12.194Z,54.93
2023-04-05T20:31:43.630Z,55.07
2023-04-05T20:34:16.664Z,54.94
2023-04-05T20:36:51.135Z,54.99
2023-04-05T20:39:23.928Z,54.74
2023-04-05T20:41:56.059Z,54.75
2023-04-05T20:44:30.638Z,54.73
2023-04-05T20:47:01.643Z,54.58
2023-04-05T20:49:32.878Z,55.15
2023-04-05T20:52:07.862Z,55.13
2023-04-05T20:54:38.883Z,55.18
2023-04-05T20:57:09.980Z,55.47
2023-04-05T20:59:46.819Z,55.60
2023-04-05T21:02:17.976Z,55.59
2023-04-05T21:04:50.728Z,55.71
2023-04-05T21:07:22.207Z,55.99
2023-04-05T21:09:53.396Z,55.98
2023-04-05T21:12:24.373Z,56.07
2023-04-05T21:15:00.445Z,56.40
2023-04-05T21:17:31.750Z,56.60
2023-04-05T21:20:02.605Z,56.55
2023-04-05T21:22:33.748Z,56.82
2023-04-05T21:25:08.738Z,56.57
2023-04-05T21:27:39.540Z,56.33
2023-04-05T21:30:17.498Z,56.20
2023-04-05T21:32:48.583Z,55.98
2023-04-05T21:35:20.218Z,56.26
2023-04-05T21:37:51.383Z,56.43
2023-04-05T21:40:22.926Z,56.30
2023-04-05T21:42:54.058Z,56.26
2023-04-05T21:45:28.089Z,56.40
2023-04-05T21:47:58.871Z,56.56
2023-04-05T21:50:30.784Z,56.29
2023-04-05T21:53:01.631Z,56.37
2023-04-05T21:55:32.519Z,56.74
2023-04-05T21:58:03.251Z,56.64
2023-04-05T22:00:36.943Z,56.74
2023-04-05T22:03:07.810Z,56.61
2023-04-05T22:05:39.174Z,56.93
2023-04-05T22:08:11.453Z,56.73
2023-04-05T22:10:43.968Z,56.89
2023-04-05T22:13:15.024Z,57.04
2023-04-05T22:15:49.449Z,57.08
2023-04-05T22:18:20.245Z,57.18
2023-04-05T22:20:51.003Z,57.14
2023-04-05T22:23:21.816Z,57.05
2023-04-05T22:25:53.481Z,57.27
2023-04-05T22:28:24.711Z,57.30
2023-04-05T22:30:58.417Z,57.07
2023-04-05T22:33:29.194Z,57.06
2023-04-05T22:36:00.051Z,56.92
2023-04-05T22:38:30.925Z,57.02
2023-04-05T22:41:01.830Z,57.15
2023-04-05T22:43:32.704Z,57.01
2023-04-05T22:46:06.175Z,57.16
2023-04-05T22:48:36.980Z,56.79
2023-04-05T22:51:08.597Z,57.12
2023-04-05T22:53:40.935Z,56.95
2023-04-05T22:56:11.959Z,56.88
2023-04-05T22:58:42.851Z,56.99
2023-04-05T23:01:16.315Z,57.41
2023-04-05T23:03:47.231Z,57.38
2023-04-05T23:06:18.144Z,57.20
2023-04-05T23:08:49.149Z,57.51
2023-04-05T23:11:20.074Z,57.62
2023-04-05T23:13:51.276Z,57.39
2023-04-05T23:16:24.871Z,57.75
2023-04-05T23:18:55.716Z,57.79
2023-04-05T23:21:26.676Z,57.85
2023-04-05T23:23:57.718Z,57.90
2023-04-05T23:26:30.026Z,57.73
2023-04-05T23:29:00.939Z,57.83
2023-04-05T23:31:34.791Z,57.79
2023-04-05T23:34:05.596Z,57.58
2023-04-05T23:36:36.306Z,57.80
2023-04-05T23:39:07.734Z,57.57
2023-04-05T23:41:38.893Z,57.73
2023-04-05T23:44:09.808Z,57.58
2023-04-05T23:46:43.388Z,57.71
2023-04-05T23:49:14.276Z,57.60
2023-04-05T23:51:45.763Z,57.47
2023-04-05T23:54:16.694Z,57.64
2023-04-05T23:56:47.813Z,57.49
2023-04-05T23:59:18.824Z,57.54
